Strasburg, Ohio
Current Conditions -  °F | °C
As of 8:53 PM on Monday 20 Oct 2014 (Local Time) from KPHD Reporting Station
Overcast Overcast  
Wind Chill: 52°   Ceiling: 5000
Heat Index: 52°   Visibility: 10mi
Dew Point: 48°   Wind: 3mph
Humidity: 86%   Direction: 190°S
Pressure: 29.88"   Gusts: NA
Location:  40.59°N, 81.53°W
Report Text: KPHD 210053Z AUTO 19003KT 10SM OVC050 11/09 A2988 RMK AO2 RAB2354E30 SLP121 P0000 T01110089
Loading
Personal Weather Stations






























Interactive Weather Map
Tropical Storm Tracking
New forecast layout! Learn more

10-Day Weather Forecast

Advertisements
Track Severe Weather on mobile